Time,TemperatureF,DewpointF,PressureIn,WindDirection,WindDirectionDegrees,WindSpeedMPH,WindSpeedGustMPH,Humidity,HourlyPrecipIn,Conditions,Clouds,dailyrainin,SoftwareType,DateUTC
2013-04-20 00:00:00,37.1,27.2,29.57,WSW,248,8.1,8.1,67,0.00,,,0.00,WUHU216HW,2013-04-20 05:00:00,
2013-04-20 00:05:00,37.1,27.2,29.57,WSW,248,8.1,8.1,67,0.00,,,0.00,WUHU216HW,2013-04-20 05:05:00,
2013-04-20 00:30:00,36.7,26.8,29.58,NW,315,5.4,5.4,67,0.00,,,0.00,WUHU216HW,2013-04-20 05:30:00,
2013-04-20 00:35:00,36.7,26.8,29.58,NW,315,5.4,5.4,67,0.00,,,0.00,WUHU216HW,2013-04-20 05:35:00,
2013-04-20 01:00:00,36.4,26.1,29.58,NW,315,5.8,5.8,66,0.00,,,0.00,WUHU216HW,2013-04-20 06:00:00,
2013-04-20 01:05:00,36.4,26.1,29.58,NW,315,5.8,5.8,66,0.00,,,0.00,WUHU216HW,2013-04-20 06:05:00,
2013-04-20 01:30:00,35.8,24.9,29.59,NW,315,6.7,6.7,64,0.00,,,0.00,WUHU216HW,2013-04-20 06:30:00,
2013-04-20 01:35:00,35.8,24.9,29.59,NW,315,6.7,6.7,64,0.00,,,0.00,WUHU216HW,2013-04-20 06:35:00,
2013-04-20 02:00:00,35.6,25.0,29.59,WNW,293,3.4,3.4,65,0.00,,,0.00,WUHU216HW,2013-04-20 07:00:00,
2013-04-20 02:05:00,35.6,25.0,29.59,WNW,293,3.4,3.4,65,0.00,,,0.00,WUHU216HW,2013-04-20 07:05:00,
2013-04-20 02:10:00,35.6,25.0,29.59,WNW,293,3.4,3.4,65,0.00,,,0.00,WUHU216HW,2013-04-20 07:10:00,
2013-04-20 02:30:00,35.1,25.2,29.60,West,270,2.0,2.0,67,0.00,,,0.00,WUHU216HW,2013-04-20 07:30:00,
2013-04-20 02:35:00,35.1,25.2,29.60,West,270,2.0,2.0,67,0.00,,,0.00,WUHU216HW,2013-04-20 07:35:00,
2013-04-20 03:00:00,34.7,25.6,29.61,West,270,2.9,2.9,69,0.00,,,0.00,WUHU216HW,2013-04-20 08:00:00,
2013-04-20 03:05:00,34.7,25.6,29.61,West,270,2.9,2.9,69,0.00,,,0.00,WUHU216HW,2013-04-20 08:05:00,
2013-04-20 03:30:00,34.2,25.4,29.62,NW,315,5.4,5.4,70,0.00,,,0.00,WUHU216HW,2013-04-20 08:30:00,
2013-04-20 03:35:00,34.2,25.4,29.62,NW,315,5.4,5.4,70,0.00,,,0.00,WUHU216HW,2013-04-20 08:35:00,
2013-04-20 04:00:00,33.8,25.7,29.62,WNW,293,1.3,1.3,72,0.00,,,0.00,WUHU216HW,2013-04-20 09:00:00,
2013-04-20 04:05:00,33.8,25.7,29.62,WNW,293,1.3,1.3,72,0.00,,,0.00,WUHU216HW,2013-04-20 09:05:00,
2013-04-20 04:30:00,33.5,25.7,29.63,WNW,293,4.7,4.7,73,0.00,,,0.00,WUHU216HW,2013-04-20 09:30:00,
2013-04-20 04:35:00,33.5,25.7,29.63,WNW,293,4.7,4.7,73,0.00,,,0.00,WUHU216HW,2013-04-20 09:35:00,
2013-04-20 05:00:00,33.1,25.7,29.65,West,270,1.8,1.8,74,0.00,,,0.00,WUHU216HW,2013-04-20 10:00:00,
2013-04-20 05:05:00,33.1,25.7,29.65,West,270,1.8,1.8,74,0.00,,,0.00,WUHU216HW,2013-04-20 10:05:00,
2013-04-20 05:30:00,32.9,25.8,29.66,NNW,338,0.0,0.0,75,0.00,,,0.00,WUHU216HW,2013-04-20 10:30:00,
2013-04-20 05:35:00,32.9,25.8,29.66,NNW,338,0.0,0.0,75,0.00,,,0.00,WUHU216HW,2013-04-20 10:35:00,
2013-04-20 06:00:00,32.8,25.7,29.68,WNW,293,1.1,1.1,75,0.00,,,0.00,WUHU216HW,2013-04-20 11:00:00,
2013-04-20 06:05:00,32.8,25.7,29.68,NW,315,0.9,1.1,75,0.00,,,0.00,WUHU216HW,2013-04-20 11:05:00,
2013-04-20 06:10:00,32.8,25.7,29.68,NW,315,0.9,0.9,75,0.00,,,0.00,WUHU216HW,2013-04-20 11:10:00,
2013-04-20 06:30:00,32.2,25.5,29.69,WNW,293,1.1,1.1,76,0.00,,,0.00,WUHU216HW,2013-04-20 11:30:00,
2013-04-20 06:35:00,32.2,25.5,29.69,WNW,293,1.1,1.1,76,0.00,,,0.00,WUHU216HW,2013-04-20 11:35:00,
2013-04-20 07:00:00,32.9,26.2,29.71,WNW,293,1.1,1.1,76,0.00,,,0.00,WUHU216HW,2013-04-20 12:00:00,
2013-04-20 07:05:00,32.9,26.2,29.71,WNW,293,1.1,1.1,76,0.00,,,0.00,WUHU216HW,2013-04-20 12:05:00,
2013-04-20 07:30:00,33.8,27.0,29.73,WNW,293,2.0,2.0,76,0.00,,,0.00,WUHU216HW,2013-04-20 12:30:00,
2013-04-20 07:35:00,33.8,27.0,29.73,WNW,293,2.0,2.0,76,0.00,,,0.00,WUHU216HW,2013-04-20 12:35:00,
2013-04-20 08:00:00,36.0,29.4,29.75,NW,315,3.4,3.4,77,0.00,,,0.00,WUHU216HW,2013-04-20 13:00:00,
2013-04-20 08:05:00,36.0,29.4,29.75,NW,315,3.4,3.4,77,0.00,,,0.00,WUHU216HW,2013-04-20 13:05:00,
2013-04-20 08:30:00,37.1,29.5,29.76,SSW,203,2.9,2.9,74,0.00,,,0.00,WUHU216HW,2013-04-20 13:30:00,
2013-04-20 08:35:00,37.1,29.5,29.76,SSW,203,2.9,2.9,74,0.00,,,0.00,WUHU216HW,2013-04-20 13:35:00,
2013-04-20 09:00:00,38.9,30.2,29.77,NW,315,1.3,1.3,71,0.00,,,0.00,WUHU216HW,2013-04-20 14:00:00,
2013-04-20 09:05:00,38.9,30.2,29.77,NW,315,1.3,1.3,71,0.00,,,0.00,WUHU216HW,2013-04-20 14:05:00,
2013-04-20 09:30:00,40.7,31.0,29.78,NW,315,1.8,1.8,68,0.00,,,0.00,WUHU216HW,2013-04-20 14:30:00,
2013-04-20 09:35:00,40.7,31.0,29.78,NW,315,1.8,1.8,68,0.00,,,0.00,WUHU216HW,2013-04-20 14:35:00,
2013-04-20 10:00:00,43.0,31.2,29.80,WNW,293,1.8,1.8,63,0.00,,,0.00,WUHU216HW,2013-04-20 15:00:00,
2013-04-20 10:05:00,43.0,31.2,29.80,WNW,293,1.8,1.8,63,0.00,,,0.00,WUHU216HW,2013-04-20 15:05:00,
2013-04-20 10:30:00,45.9,32.9,29.81,WSW,248,5.4,5.4,60,0.00,,,0.00,WUHU216HW,2013-04-20 15:30:00,
2013-04-20 10:35:00,45.9,32.9,29.81,WSW,248,5.4,5.4,60,0.00,,,0.00,WUHU216HW,2013-04-20 15:35:00,
2013-04-20 11:00:00,45.9,31.1,29.81,WSW,248,4.0,4.0,56,0.00,,,0.00,WUHU216HW,2013-04-20 16:00:00,
2013-04-20 11:05:00,45.9,31.1,29.81,WSW,248,4.0,4.0,56,0.00,,,0.00,WUHU216HW,2013-04-20 16:05:00,
2013-04-20 11:30:00,46.4,28.8,29.82,West,270,2.5,2.5,50,0.00,,,0.00,WUHU216HW,2013-04-20 16:30:00,
2013-04-20 11:35:00,46.4,28.8,29.82,West,270,2.5,2.5,50,0.00,,,0.00,WUHU216HW,2013-04-20 16:35:00,
2013-04-20 12:00:00,47.7,30.9,29.82,West,270,2.7,2.7,52,0.00,,,0.00,WUHU216HW,2013-04-20 17:00:00,
2013-04-20 12:05:00,47.7,30.9,29.82,West,270,2.7,2.7,52,0.00,,,0.00,WUHU216HW,2013-04-20 17:05:00,
2013-04-20 12:30:00,50.4,33.9,29.82,West,270,2.5,2.5,53,0.00,,,0.00,WUHU216HW,2013-04-20 17:30:00,
2013-04-20 12:35:00,50.4,33.9,29.82,West,270,2.5,2.5,53,0.00,,,0.00,WUHU216HW,2013-04-20 17:35:00,
2013-04-20 13:00:00,48.6,29.2,29.82,SSW,203,0.9,0.9,47,0.00,,,0.00,WUHU216HW,2013-04-20 18:00:00,
2013-04-20 13:05:00,48.6,29.2,29.82,SSW,203,0.9,0.9,47,0.00,,,0.00,WUHU216HW,2013-04-20 18:05:00,
2013-04-20 13:30:00,50.0,31.7,29.82,SW,225,3.6,3.6,49,0.00,,,0.00,WUHU216HW,2013-04-20 18:30:00,
2013-04-20 13:35:00,50.0,31.7,29.82,SW,225,3.6,3.6,49,0.00,,,0.00,WUHU216HW,2013-04-20 18:35:00,
2013-04-20 14:00:00,50.8,31.8,29.82,NNW,338,2.5,2.5,48,0.00,,,0.00,WUHU216HW,2013-04-20 19:00:00,
2013-04-20 14:05:00,50.8,31.8,29.82,NNW,338,2.5,2.5,48,0.00,,,0.00,WUHU216HW,2013-04-20 19:05:00,
2013-04-20 14:30:00,53.5,34.2,29.83,West,270,2.0,2.0,48,0.00,,,0.00,WUHU216HW,2013-04-20 19:30:00,
2013-04-20 14:35:00,53.5,34.2,29.83,West,270,2.0,2.0,48,0.00,,,0.00,WUHU216HW,2013-04-20 19:35:00,
2013-04-20 15:00:00,51.8,32.1,29.82,SE,135,2.5,2.5,47,0.00,,,0.00,WUHU216HW,2013-04-20 20:00:00,
2013-04-20 15:05:00,51.8,32.1,29.82,SE,135,2.5,2.5,47,0.00,,,0.00,WUHU216HW,2013-04-20 20:05:00,
2013-04-20 15:30:00,52.6,32.9,29.82,SE,135,1.1,1.1,47,0.00,,,0.00,WUHU216HW,2013-04-20 20:30:00,
2013-04-20 15:35:00,52.6,32.9,29.82,SE,135,1.1,1.1,47,0.00,,,0.00,WUHU216HW,2013-04-20 20:35:00,
2013-04-20 16:00:00,52.2,30.2,29.82,West,270,2.5,2.5,43,0.00,,,0.00,WUHU216HW,2013-04-20 21:00:00,
2013-04-20 16:05:00,52.2,30.2,29.82,West,270,2.5,2.5,43,0.00,,,0.00,WUHU216HW,2013-04-20 21:05:00,
2013-04-20 16:30:00,53.5,31.4,29.82,WNW,293,0.9,0.9,43,0.00,,,0.00,WUHU216HW,2013-04-20 21:30:00,
2013-04-20 16:35:00,53.5,31.4,29.82,WNW,293,0.9,0.9,43,0.00,,,0.00,WUHU216HW,2013-04-20 21:35:00,
2013-04-20 17:00:00,53.5,31.4,29.82,East,90,0.0,0.0,43,0.00,,,0.00,WUHU216HW,2013-04-20 22:00:00,
2013-04-20 17:05:00,53.5,31.4,29.82,East,90,0.0,0.0,43,0.00,,,0.00,WUHU216HW,2013-04-20 22:05:00,
2013-04-20 17:30:00,52.0,29.5,29.82,WSW,248,1.1,1.1,42,0.00,,,0.00,WUHU216HW,2013-04-20 22:30:00,
2013-04-20 17:35:00,52.0,29.5,29.82,WSW,248,1.1,1.1,42,0.00,,,0.00,WUHU216HW,2013-04-20 22:35:00,
2013-04-20 18:00:00,52.9,30.3,29.82,NNW,338,0.4,0.4,42,0.00,,,0.00,WUHU216HW,2013-04-20 23:00:00,
2013-04-20 18:05:00,52.9,30.3,29.82,NNW,338,0.4,0.4,42,0.00,,,0.00,WUHU216HW,2013-04-20 23:05:00,
2013-04-20 18:30:00,51.8,29.3,29.82,NE,45,0.4,0.4,42,0.00,,,0.00,WUHU216HW,2013-04-20 23:30:00,
2013-04-20 18:35:00,51.8,29.3,29.82,NE,45,0.4,0.4,42,0.00,,,0.00,WUHU216HW,2013-04-20 23:35:00,
2013-04-20 19:00:00,49.7,27.5,29.83,NE,45,0.7,0.7,42,0.00,,,0.00,WUHU216HW,2013-04-21 00:00:00,
2013-04-20 19:05:00,49.7,27.5,29.83,NE,45,0.7,0.7,42,0.00,,,0.00,WUHU216HW,2013-04-21 00:05:00,
2013-04-20 19:30:00,48.4,27.9,29.84,ENE,68,2.5,2.5,45,0.00,,,0.00,WUHU216HW,2013-04-21 00:30:00,
2013-04-20 19:35:00,48.4,27.9,29.84,ENE,68,2.5,2.5,45,0.00,,,0.00,WUHU216HW,2013-04-21 00:35:00,
2013-04-20 20:00:00,46.6,27.9,29.86,SSE,158,0.0,0.0,48,0.00,,,0.00,WUHU216HW,2013-04-21 01:00:00,
2013-04-20 20:05:00,46.6,27.9,29.86,SSE,158,0.0,0.0,48,0.00,,,0.00,WUHU216HW,2013-04-21 01:05:00,
2013-04-20 20:30:00,45.5,29.3,29.88,ESE,113,1.8,1.8,53,0.00,,,0.00,WUHU216HW,2013-04-21 01:30:00,
2013-04-20 20:35:00,45.5,29.3,29.88,ESE,113,1.8,1.8,53,0.00,,,0.00,WUHU216HW,2013-04-21 01:35:00,
2013-04-20 21:00:00,44.3,28.6,29.89,SE,135,1.8,1.8,54,0.00,,,0.00,WUHU216HW,2013-04-21 02:00:00,
2013-04-20 21:05:00,44.3,28.6,29.89,SE,135,1.8,1.8,54,0.00,,,0.00,WUHU216HW,2013-04-21 02:05:00,
2013-04-20 21:09:00,44.3,28.6,29.89,SE,135,1.8,1.8,54,0.00,,,0.00,WUHU216HW,2013-04-21 02:09:00,
2013-04-20 21:30:00,43.6,29.3,29.90,ENE,68,1.1,1.1,57,0.00,,,0.00,WUHU216HW,2013-04-21 02:30:00,
2013-04-20 21:35:00,43.6,29.3,29.90,ENE,68,1.1,1.1,57,0.00,,,0.00,WUHU216HW,2013-04-21 02:35:00,
2013-04-20 22:00:00,42.7,29.3,29.91,South,180,1.8,1.8,59,0.00,,,0.00,WUHU216HW,2013-04-21 03:00:00,
2013-04-20 22:05:00,42.7,29.3,29.91,South,180,1.8,1.8,59,0.00,,,0.00,WUHU216HW,2013-04-21 03:05:00,
2013-04-20 22:10:00,42.7,29.3,29.91,South,180,1.8,1.8,59,0.00,,,0.00,WUHU216HW,2013-04-21 03:10:00,
2013-04-20 22:30:00,41.9,29.4,29.92,ESE,113,1.8,1.8,61,0.00,,,0.00,WUHU216HW,2013-04-21 03:30:00,
2013-04-20 22:35:00,41.9,29.4,29.92,ESE,113,1.8,1.8,61,0.00,,,0.00,WUHU216HW,2013-04-21 03:35:00,
2013-04-20 23:00:00,41.2,29.5,29.91,East,90,1.6,1.6,63,0.00,,,0.00,WUHU216HW,2013-04-21 04:00:00,
2013-04-20 23:01:00,41.2,29.5,29.91,East,90,1.6,1.6,63,0.00,,,0.00,WUHU216HW,2013-04-21 04:01:00,
2013-04-20 23:06:00,41.2,29.5,29.91,East,90,1.6,1.6,63,0.00,,,0.00,WUHU216HW,2013-04-21 04:06:00,
2013-04-20 23:30:00,41.0,29.4,29.91,East,90,2.7,2.7,63,0.00,,,0.00,WUHU216HW,2013-04-21 04:30:00,
2013-04-20 23:35:00,41.0,29.4,29.91,East,90,2.7,2.7,63,0.00,,,0.00,WUHU216HW,2013-04-21 04:35:00,